createdAt,value
2019-04-29T00:00:40.292Z,96.5011
2019-04-29T00:01:43.283Z,96.2921
2019-04-29T00:02:45.353Z,96.3088
2019-04-29T00:03:48.303Z,96.1761
2019-04-29T00:04:51.312Z,96.0388
2019-04-29T00:05:54.304Z,96.4141
2019-04-29T00:06:57.281Z,96.2814
2019-04-29T00:08:00.353Z,95.8434
2019-04-29T00:09:03.296Z,96.2371
2019-04-29T00:10:06.293Z,96.1440
2019-04-29T00:11:09.283Z,95.9350
2019-04-29T00:12:12.327Z,96.0662
2019-04-29T00:13:15.277Z,96.3363
2019-04-29T00:14:18.280Z,96.1578
2019-04-29T00:15:21.304Z,96.4019
2019-04-29T00:16:24.317Z,96.2188
2019-04-29T00:17:27.273Z,96.2264
2019-04-29T00:18:30.308Z,96.1532
2019-04-29T00:19:36.100Z,96.2585
2019-04-29T00:20:39.266Z,96.4706
2019-04-29T00:21:41.299Z,96.3272
2019-04-29T00:22:44.277Z,96.1120
2019-04-29T00:23:47.294Z,96.0998
2019-04-29T00:24:50.311Z,96.3409
2019-04-29T00:25:53.323Z,96.2371
2019-04-29T00:26:56.293Z,96.1685
2019-04-29T00:27:59.317Z,96.2051
2019-04-29T00:29:02.339Z,96.4782
2019-04-29T00:30:05.323Z,96.2463
2019-04-29T00:31:08.322Z,96.4477
2019-04-29T00:32:11.278Z,96.4157
2019-04-29T00:33:14.291Z,96.2768
2019-04-29T00:34:17.354Z,95.9838
2019-04-29T00:35:20.313Z,96.0021
2019-04-29T00:36:23.277Z,96.1440
2019-04-29T00:37:26.272Z,95.9762
2019-04-29T00:38:29.330Z,96.1669
2019-04-29T00:39:32.335Z,95.9564
2019-04-29T00:40:35.311Z,96.1089
2019-04-29T00:41:38.278Z,96.0571
2019-04-29T00:42:41.278Z,95.5459
2019-04-29T00:43:44.359Z,96.1227
2019-04-29T00:44:47.308Z,96.2585
2019-04-29T00:45:50.300Z,96.2722
2019-04-29T00:46:53.281Z,96.0174
2019-04-29T00:47:56.338Z,95.9213
2019-04-29T00:48:59.283Z,96.0433
2019-04-29T00:50:02.347Z,95.9670
2019-04-29T00:51:05.347Z,95.6405
2019-04-29T00:52:08.309Z,95.8526
2019-04-29T00:53:11.289Z,95.7137
2019-04-29T00:54:14.303Z,95.9121
2019-04-29T00:55:17.345Z,96.0571
2019-04-29T00:56:20.270Z,96.1639
2019-04-29T00:57:23.302Z,95.9487
2019-04-29T00:58:26.263Z,95.9258
2019-04-29T00:59:29.303Z,96.3638
2019-04-29T01:00:32.318Z,95.7839
2019-04-29T01:01:35.319Z,95.9121
2019-04-29T01:02:38.283Z,95.8328
2019-04-29T01:03:41.405Z,95.5810
2019-04-29T01:04:44.309Z,95.9564
2019-04-29T01:05:47.338Z,95.8434
2019-04-29T01:06:50.276Z,96.0494
2019-04-29T01:07:53.325Z,96.0769
2019-04-29T01:08:56.299Z,96.4843
2019-04-29T01:09:58.288Z,96.7529
2019-04-29T01:11:01.361Z,96.3928
2019-04-29T01:12:04.327Z,96.3836
2019-04-29T01:13:07.317Z,96.4019
2019-04-29T01:14:10.309Z,96.5103
2019-04-29T01:15:13.311Z,96.6888
2019-04-29T01:16:16.345Z,96.6812
2019-04-29T01:17:19.284Z,96.7117
2019-04-29T01:18:22.305Z,96.6491
2019-04-29T01:19:25.266Z,96.5057
2019-04-29T01:20:28.278Z,96.4462
2019-04-29T01:21:30.333Z,96.5164
2019-04-29T01:22:33.297Z,96.1395
2019-04-29T01:23:36.301Z,96.4843
2019-04-29T01:24:39.333Z,96.5057
2019-04-29T01:25:42.269Z,96.3226
2019-04-29T01:26:45.304Z,96.1456
2019-04-29T01:27:48.312Z,95.9976
2019-04-29T01:28:51.288Z,95.9884
2019-04-29T01:29:54.295Z,96.2875
2019-04-29T01:30:57.295Z,96.2264
2019-04-29T01:32:00.333Z,96.0861
2019-04-29T01:33:03.310Z,95.9533
2019-04-29T01:34:06.253Z,95.8785
2019-04-29T01:35:09.283Z,95.9762
2019-04-29T01:36:12.338Z,96.2142
2019-04-29T01:37:15.317Z,96.3180
2019-04-29T01:38:18.283Z,96.1913
2019-04-29T01:39:21.298Z,95.7153
2019-04-29T01:40:24.275Z,96.0403
2019-04-29T01:41:27.287Z,96.4340
2019-04-29T01:42:30.306Z,96.0723
2019-04-29T01:43:33.318Z,96.0815
2019-04-29T01:44:36.273Z,96.2814
2019-04-29T01:45:39.305Z,96.4187
2019-04-29T01:46:42.317Z,96.2859
2019-04-29T01:47:45.340Z,96.4523
2019-04-29T01:48:48.305Z,96.4370
2019-04-29T01:49:51.315Z,96.9314
2019-04-29T01:50:54.290Z,96.3333
2019-04-29T01:51:57.302Z,96.3699
2019-04-29T01:53:00.326Z,95.9716
2019-04-29T01:54:03.287Z,95.9426
2019-04-29T01:55:08.327Z,96.0388
2019-04-29T01:56:11.280Z,95.6863
2019-04-29T01:57:13.292Z,95.7794
2019-04-29T01:58:16.347Z,95.7504
2019-04-29T01:59:19.288Z,95.7336
2019-04-29T02:00:22.327Z,95.7229
2019-04-29T02:01:25.314Z,95.8648
2019-04-29T02:02:28.290Z,96.2371
2019-04-29T02:03:31.310Z,96.1715
2019-04-29T02:04:34.345Z,96.1913
2019-04-29T02:05:37.287Z,96.0311
2019-04-29T02:06:40.302Z,95.4406
2019-04-29T02:07:43.290Z,95.8282
2019-04-29T02:08:46.337Z,95.6603
2019-04-29T02:09:49.285Z,95.9426
2019-04-29T02:10:52.282Z,96.0632
2019-04-29T02:11:55.283Z,96.1089
2019-04-29T02:12:58.279Z,96.3729
2019-04-29T02:14:00.343Z,96.6949
2019-04-29T02:15:03.296Z,96.6125
2019-04-29T02:16:06.274Z,96.9223
2019-04-29T02:17:09.298Z,97.0230
2019-04-29T02:18:12.261Z,97.0336
2019-04-29T02:19:15.346Z,97.2107
2019-04-29T02:20:18.270Z,97.1145
2019-04-29T02:21:21.329Z,97.2107
2019-04-29T02:22:24.280Z,96.9924
2019-04-29T02:23:27.325Z,96.8414
2019-04-29T02:24:30.312Z,96.8078
2019-04-29T02:25:33.289Z,96.7727
2019-04-29T02:26:36.278Z,96.4233
2019-04-29T02:27:40.325Z,96.6705
2019-04-29T02:28:43.300Z,96.5805
2019-04-29T02:29:46.302Z,96.5484
2019-04-29T02:30:49.333Z,96.8551
2019-04-29T02:31:52.308Z,96.6354
2019-04-29T02:32:55.303Z,96.5698
2019-04-29T02:33:58.390Z,96.6628
2019-04-29T02:35:01.329Z,97.1664
2019-04-29T02:36:04.320Z,96.6766
2019-04-29T02:37:07.276Z,97.2259
2019-04-29T02:38:10.299Z,96.9833
2019-04-29T02:39:13.296Z,97.1878
2019-04-29T02:40:15.343Z,97.3068
2019-04-29T02:41:18.298Z,97.2473
2019-04-29T02:42:21.286Z,97.1801
2019-04-29T02:43:24.267Z,97.4853
2019-04-29T02:44:27.284Z,97.5326
2019-04-29T02:45:30.347Z,97.5006
2019-04-29T02:46:33.286Z,97.5921
2019-04-29T02:47:36.311Z,97.6272
2019-04-29T02:48:41.283Z,97.8515
2019-04-29T02:49:44.316Z,97.6516
2019-04-29T02:50:47.301Z,97.6089
2019-04-29T02:51:50.331Z,97.6471
2019-04-29T02:52:53.268Z,97.9034
2019-04-29T02:53:56.324Z,97.8393
2019-04-29T02:54:59.264Z,97.9522
2019-04-29T02:56:02.329Z,97.9309
2019-04-29T02:57:05.359Z,97.8286
2019-04-29T02:58:12.270Z,97.7737
2019-04-29T02:59:15.307Z,97.8607
2019-04-29T03:00:17.334Z,97.8668
2019-04-29T03:01:20.336Z,98.1323
2019-04-29T03:02:23.268Z,98.0987
2019-04-29T03:03:26.307Z,98.1369
2019-04-29T03:04:29.275Z,98.2422
2019-04-29T03:05:31.290Z,98.0804
2019-04-29T03:06:34.340Z,98.0850
2019-04-29T03:07:37.281Z,98.0301
2019-04-29T03:08:40.317Z,97.9477
2019-04-29T03:09:43.307Z,98.0545
2019-04-29T03:10:46.303Z,98.0804
2019-04-29T03:11:48.327Z,97.9294
2019-04-29T03:12:51.281Z,97.8668
2019-04-29T03:13:54.280Z,98.0087
2019-04-29T03:14:57.280Z,98.0941
2019-04-29T03:16:00.282Z,98.1414
2019-04-29T03:17:03.283Z,98.1048
2019-04-29T03:18:06.290Z,98.2452
2019-04-29T03:19:09.297Z,98.1628
2019-04-29T03:20:13.368Z,98.1903
2019-04-29T03:21:16.298Z,98.3475
2019-04-29T03:22:19.335Z,98.2925
2019-04-29T03:23:22.294Z,98.2376
2019-04-29T03:24:25.271Z,98.3734
2019-04-29T03:25:28.277Z,98.4375
2019-04-29T03:26:31.277Z,98.2742
2019-04-29T03:27:34.323Z,98.1445
2019-04-29T03:28:37.281Z,98.1445
2019-04-29T03:29:40.308Z,97.7432
2019-04-29T03:30:43.309Z,97.8714
2019-04-29T03:31:46.294Z,97.8744
2019-04-29T03:32:49.346Z,98.0133
2019-04-29T03:33:52.301Z,97.9614
2019-04-29T03:34:55.300Z,98.0224
2019-04-29T03:35:58.305Z,98.0346
2019-04-29T03:37:00.351Z,98.1308
2019-04-29T03:38:03.298Z,98.0163
2019-04-29T03:39:06.311Z,97.9309
2019-04-29T03:40:09.338Z,97.7462
2019-04-29T03:41:12.323Z,97.5540
2019-04-29T03:42:15.288Z,97.6150
2019-04-29T03:43:17.416Z,97.4212
2019-04-29T03:44:20.286Z,97.5631
2019-04-29T03:45:23.274Z,97.8622
2019-04-29T03:46:26.317Z,97.8302
2019-04-29T03:47:29.284Z,97.9583
2019-04-29T03:48:32.307Z,97.5723
2019-04-29T03:49:35.304Z,97.6822
2019-04-29T03:50:38.294Z,97.8439
2019-04-29T03:51:41.334Z,97.7340
2019-04-29T03:52:44.290Z,97.9934
2019-04-29T03:53:47.309Z,98.1125
2019-04-29T03:54:50.303Z,98.2284
2019-04-29T03:55:53.319Z,98.2498
2019-04-29T03:56:56.265Z,98.3505
2019-04-29T03:57:59.310Z,98.0850
2019-04-29T03:59:02.316Z,97.7203
2019-04-29T04:00:06.345Z,97.8668
2019-04-29T04:01:09.288Z,98.0301
2019-04-29T04:02:12.316Z,98.1277
2019-04-29T04:03:15.321Z,98.2086
2019-04-29T04:04:18.306Z,98.3551
2019-04-29T04:05:21.306Z,98.1628
2019-04-29T04:06:24.288Z,98.1720
2019-04-29T04:07:27.344Z,98.0941
2019-04-29T04:08:30.310Z,98.2193
2019-04-29T04:09:33.331Z,98.2422
2019-04-29T04:10:36.289Z,97.9431
2019-04-29T04:11:39.330Z,98.1262
2019-04-29T04:12:42.289Z,97.9706
2019-04-29T04:13:45.301Z,98.0179
2019-04-29T04:14:48.330Z,97.8027
2019-04-29T04:15:51.285Z,97.8668
2019-04-29T04:16:53.284Z,97.7752
2019-04-29T04:17:56.314Z,97.9065
2019-04-29T04:18:59.291Z,97.8668
2019-04-29T04:20:02.350Z,97.8210
2019-04-29T04:21:05.299Z,97.6638
2019-04-29T04:22:08.311Z,97.4212
2019-04-29T04:23:11.271Z,97.4395
2019-04-29T04:24:14.304Z,97.4853
2019-04-29T04:25:17.348Z,97.5174
2019-04-29T04:26:20.318Z,97.3938
2019-04-29T04:27:23.276Z,97.4624
2019-04-29T04:28:26.315Z,97.3266
2019-04-29T04:29:29.324Z,97.1206
2019-04-29T04:30:32.334Z,97.0550
2019-04-29T04:31:35.275Z,97.0596
2019-04-29T04:32:38.273Z,96.9146
2019-04-29T04:33:41.323Z,96.8215
2019-04-29T04:34:44.351Z,96.3653
2019-04-29T04:35:47.303Z,96.3333
2019-04-29T04:36:50.323Z,96.3333
2019-04-29T04:37:52.307Z,96.4050
2019-04-29T04:38:55.281Z,96.6018
2019-04-29T04:39:57.309Z,96.6796
2019-04-29T04:41:00.386Z,96.5026
2019-04-29T04:42:03.287Z,96.4828
2019-04-29T04:43:06.352Z,96.0952
2019-04-29T04:44:09.272Z,96.0754
2019-04-29T04:45:11.309Z,96.1318
2019-04-29T04:46:14.317Z,96.1273
2019-04-29T04:47:17.303Z,96.2173
2019-04-29T04:48:20.272Z,96.1868
2019-04-29T04:49:23.320Z,96.3561
2019-04-29T04:50:26.369Z,96.4096
2019-04-29T04:51:29.303Z,96.0571
2019-04-29T04:52:32.279Z,96.0220
2019-04-29T04:53:35.304Z,95.8373
2019-04-29T04:54:38.337Z,95.7656
2019-04-29T04:55:41.351Z,95.8556
2019-04-29T04:56:44.323Z,95.8968
2019-04-29T04:57:47.287Z,96.0128
2019-04-29T04:58:50.284Z,96.0479
2019-04-29T04:59:53.316Z,95.7794
2019-04-29T05:00:56.285Z,96.0479
2019-04-29T05:01:59.344Z,95.9243
2019-04-29T05:03:02.283Z,95.7000
2019-04-29T05:04:05.296Z,95.2117
2019-04-29T05:05:08.299Z,95.4437
2019-04-29T05:06:11.342Z,95.4681
2019-04-29T05:07:14.302Z,95.4620
2019-04-29T05:08:17.277Z,95.3292
2019-04-29T05:09:20.326Z,95.2529
2019-04-29T05:10:23.272Z,94.9859
2019-04-29T05:11:26.355Z,95.0103
2019-04-29T05:12:29.293Z,95.0195
2019-04-29T05:13:32.304Z,94.9325
2019-04-29T05:14:35.303Z,94.7021
2019-04-29T05:15:38.300Z,94.7341
2019-04-29T05:16:41.297Z,94.6380
2019-04-29T05:17:44.280Z,94.5113
2019-04-29T05:18:47.310Z,94.6242
2019-04-29T05:19:50.262Z,94.5830
2019-04-29T05:20:53.316Z,94.4289
2019-04-29T05:21:55.366Z,94.7204
2019-04-29T05:22:58.313Z,94.5251
2019-04-29T05:24:01.294Z,94.3374
2019-04-29T05:25:04.315Z,94.3328
2019-04-29T05:26:07.298Z,94.2046
2019-04-29T05:27:10.320Z,94.1070
2019-04-29T05:28:13.320Z,94.1314
2019-04-29T05:29:16.286Z,93.9025
2019-04-29T05:30:18.343Z,93.8796
2019-04-29T05:31:21.316Z,94.2626
2019-04-29T05:32:24.375Z,93.8567
2019-04-29T05:33:27.302Z,93.9666
2019-04-29T05:34:30.284Z,93.8323
2019-04-29T05:35:33.310Z,94.0978
2019-04-29T05:36:38.187Z,93.5454
2019-04-29T05:37:42.343Z,93.3928
2019-04-29T05:38:45.285Z,93.5897
2019-04-29T05:39:48.296Z,93.8430
2019-04-29T05:40:51.287Z,93.7408
2019-04-29T05:41:54.311Z,93.9620
2019-04-29T05:42:57.297Z,93.9803
2019-04-29T05:44:00.284Z,94.0444
2019-04-29T05:45:03.284Z,93.9742
2019-04-29T05:46:07.554Z,93.7774
2019-04-29T05:47:11.302Z,93.5042
2019-04-29T05:48:14.328Z,93.4066
2019-04-29T05:49:17.341Z,93.0724
2019-04-29T05:50:20.307Z,93.0770
2019-04-29T05:51:27.178Z,92.9946
2019-04-29T05:52:34.654Z,92.2576
2019-04-29T05:53:39.350Z,92.7581
2019-04-29T05:54:42.278Z,93.0007
2019-04-29T05:55:45.335Z,92.7749
2019-04-29T05:56:50.279Z,91.7906
2019-04-29T05:57:55.883Z,91.7723
2019-04-29T05:59:01.351Z,91.6503
2019-04-29T06:00:04.304Z,92.0836
2019-04-29T06:01:07.367Z,92.4773
2019-04-29T06:02:10.285Z,92.2225
2019-04-29T06:03:13.313Z,92.3583
2019-04-29T06:04:18.194Z,92.4788
2019-04-29T06:05:21.340Z,92.0607
2019-04-29T06:06:24.299Z,91.9066
2019-04-29T06:07:27.321Z,91.4946
2019-04-29T06:08:34.323Z,91.5587
2019-04-29T06:09:38.331Z,91.2429
2019-04-29T06:10:42.102Z,92.0073
2019-04-29T06:11:45.302Z,92.4636
2019-04-29T06:12:48.285Z,92.2316
2019-04-29T06:13:51.281Z,92.5338
2019-04-29T06:14:54.348Z,92.4315
2019-04-29T06:15:57.296Z,91.3252
2019-04-29T06:17:02.837Z,91.6991
2019-04-29T06:18:08.273Z,92.1797
2019-04-29T06:19:11.301Z,92.3445
2019-04-29T06:20:17.954Z,92.3323
2019-04-29T06:21:22.315Z,91.8456
2019-04-29T06:22:25.277Z,91.3466
2019-04-29T06:23:28.307Z,91.5389
2019-04-29T06:24:31.319Z,90.9667
2019-04-29T06:25:34.330Z,89.1417
2019-04-29T06:26:37.331Z,90.2449
2019-04-29T06:27:40.294Z,89.7185
2019-04-29T06:28:42.346Z,90.2388
2019-04-29T06:29:45.325Z,90.7561
2019-04-29T06:30:50.258Z,91.2230
2019-04-29T06:31:55.307Z,91.1772
2019-04-29T06:32:58.378Z,90.9911
2019-04-29T06:34:05.238Z,91.0231
2019-04-29T06:35:10.693Z,90.6416
2019-04-29T06:36:17.316Z,90.3639
2019-04-29T06:37:20.309Z,90.7423
2019-04-29T06:38:23.314Z,90.8675
2019-04-29T06:39:26.293Z,91.1421
2019-04-29T06:40:30.728Z,91.1833
2019-04-29T06:41:40.676Z,90.5013
2019-04-29T06:42:45.326Z,89.9474
2019-04-29T06:43:48.284Z,90.0603
2019-04-29T06:44:51.312Z,90.3456
2019-04-29T06:45:54.346Z,90.1900
2019-04-29T06:46:57.311Z,90.0465
2019-04-29T06:47:59.375Z,88.4672
2019-04-29T06:49:10.024Z,88.8334
2019-04-29T06:50:11.325Z,89.2088
2019-04-29T06:51:14.269Z,88.9937
2019-04-29T06:52:17.290Z,89.1310
2019-04-29T06:53:21.375Z,89.0166
2019-04-29T06:54:26.324Z,87.4617
2019-04-29T06:55:29.331Z,87.6173
2019-04-29T06:56:32.301Z,88.4169
2019-04-29T06:57:35.297Z,88.1697
2019-04-29T06:58:38.547Z,88.0781
2019-04-29T06:59:42.900Z,88.2658
2019-04-29T07:00:51.068Z,87.7729
2019-04-29T07:01:54.317Z,88.2887
2019-04-29T07:02:57.310Z,88.7983
2019-04-29T07:04:02.355Z,88.8167
2019-04-29T07:05:05.291Z,88.1376
2019-04-29T07:06:08.356Z,87.5746
2019-04-29T07:07:11.301Z,87.8950
2019-04-29T07:08:14.269Z,87.8218
2019-04-29T07:09:17.294Z,87.0893
2019-04-29T07:10:21.617Z,87.6722
2019-04-29T07:11:27.349Z,88.1163
2019-04-29T07:12:30.313Z,88.8930
2019-04-29T07:13:33.307Z,86.7521
2019-04-29T07:14:38.607Z,86.9474
2019-04-29T07:15:43.433Z,87.5120
2019-04-29T07:16:50.340Z,87.1183
2019-04-29T07:17:53.320Z,87.8721
2019-04-29T07:18:56.274Z,88.3757
2019-04-29T07:20:02.038Z,88.1834
2019-04-29T07:21:07.437Z,87.9286
2019-04-29T07:22:14.340Z,88.2994
2019-04-29T07:23:17.380Z,88.4627
2019-04-29T07:24:20.563Z,86.7613
2019-04-29T07:25:24.753Z,87.4235
2019-04-29T07:26:31.265Z,86.5827
2019-04-29T07:27:40.438Z,87.1763
2019-04-29T07:28:42.304Z,87.5166
2019-04-29T07:29:45.305Z,86.4027
2019-04-29T07:31:01.224Z,86.8559
2019-04-29T07:31:56.301Z,87.2740
2019-04-29T07:33:00.413Z,87.5990
2019-04-29T07:34:03.298Z,87.1504
2019-04-29T07:35:09.928Z,86.6224
2019-04-29T07:36:14.310Z,86.3249
2019-04-29T07:37:17.352Z,86.6468
2019-04-29T07:38:20.337Z,87.2633
2019-04-29T07:39:22.353Z,86.7185
2019-04-29T07:40:25.323Z,86.7018
2019-04-29T07:41:30.361Z,85.8091
2019-04-29T07:42:33.392Z,85.8717
2019-04-29T07:43:38.465Z,86.6606
2019-04-29T07:44:44.529Z,86.0182
2019-04-29T07:45:47.312Z,86.6407
2019-04-29T07:46:57.046Z,85.9403
2019-04-29T07:48:01.702Z,86.5049
2019-04-29T07:49:06.350Z,86.3340
2019-04-29T07:50:09.382Z,87.0771
2019-04-29T07:51:12.332Z,85.3681
2019-04-29T07:52:16.162Z,86.5827
2019-04-29T07:53:20.885Z,86.3020
2019-04-29T07:54:27.310Z,85.9998
2019-04-29T07:55:30.875Z,85.8961
2019-04-29T07:56:37.910Z,85.3864
2019-04-29T07:57:43.306Z,84.8020
2019-04-29T07:58:48.562Z,85.1026
2019-04-29T07:59:51.325Z,84.9989
2019-04-29T08:00:56.237Z,85.6016
2019-04-29T08:01:59.885Z,86.6178
2019-04-29T08:03:04.345Z,84.9561
2019-04-29T08:04:07.287Z,84.9561
2019-04-29T08:05:10.330Z,85.3681
2019-04-29T08:06:13.291Z,86.3294
2019-04-29T08:07:16.309Z,85.9907
2019-04-29T08:08:21.332Z,87.0024
2019-04-29T08:09:25.328Z,86.1753
2019-04-29T08:10:29.744Z,86.4942
2019-04-29T08:11:33.301Z,84.8249
2019-04-29T08:12:36.313Z,84.6693
2019-04-29T08:13:39.285Z,85.8869
2019-04-29T08:14:42.298Z,85.3330
2019-04-29T08:15:45.310Z,85.5344
2019-04-29T08:16:48.321Z,85.5833
2019-04-29T08:17:55.493Z,86.6423
2019-04-29T08:18:59.296Z,85.1682
2019-04-29T08:20:05.163Z,84.9516
2019-04-29T08:21:10.273Z,85.6855
2019-04-29T08:22:18.364Z,86.4118
2019-04-29T08:23:21.315Z,85.6168
2019-04-29T08:24:23.323Z,85.7450
2019-04-29T08:25:27.181Z,85.4566
2019-04-29T08:26:33.657Z,85.6702
2019-04-29T08:27:40.621Z,84.3946
2019-04-29T08:28:44.344Z,85.7267
2019-04-29T08:29:47.287Z,85.8351
2019-04-29T08:30:50.316Z,85.9541
2019-04-29T08:31:57.365Z,85.0034
2019-04-29T08:33:01.349Z,85.5116
2019-04-29T08:34:04.323Z,85.5055
2019-04-29T08:35:07.309Z,85.5436
2019-04-29T08:36:10.308Z,84.9058
2019-04-29T08:37:12.303Z,84.9378
2019-04-29T08:38:15.371Z,84.9104
2019-04-29T08:39:18.299Z,85.0813
2019-04-29T08:40:21.352Z,83.7659
2019-04-29T08:41:28.563Z,84.4633
2019-04-29T08:42:32.311Z,84.6555
2019-04-29T08:43:35.295Z,84.8844
2019-04-29T08:44:38.296Z,85.4139
2019-04-29T08:45:41.331Z,84.9943
2019-04-29T08:46:51.375Z,84.5457
2019-04-29T08:47:52.350Z,84.5457
2019-04-29T08:48:55.337Z,83.1434
2019-04-29T08:49:58.342Z,84.4541
2019-04-29T08:51:01.300Z,82.8641
2019-04-29T08:52:04.323Z,82.8199
2019-04-29T08:53:06.351Z,83.3097
2019-04-29T08:54:09.357Z,82.5727
2019-04-29T08:55:12.341Z,82.4109
2019-04-29T08:56:15.283Z,81.6114
2019-04-29T08:57:18.365Z,80.8911
2019-04-29T08:58:21.315Z,80.4929
2019-04-29T08:59:24.902Z,81.0742
2019-04-29T09:00:29.273Z,79.0829
2019-04-29T09:01:34.095Z,80.0580
2019-04-29T09:02:41.438Z,78.9776
2019-04-29T09:03:47.333Z,77.2976
2019-04-29T09:04:53.819Z,78.5840
2019-04-29T09:06:05.038Z,77.1649
2019-04-29T09:07:12.513Z,76.4523
2019-04-29T09:08:13.669Z,77.0916
2019-04-29T09:09:28.404Z,75.0881
2019-04-29T09:10:25.334Z,75.4131
2019-04-29T09:11:28.358Z,74.8394
2019-04-29T09:12:31.320Z,75.3307
2019-04-29T09:13:36.400Z,73.3135
2019-04-29T09:14:39.280Z,74.2977
2019-04-29T09:15:42.354Z,73.1945
2019-04-29T09:16:45.320Z,72.6741
2019-04-29T09:17:48.356Z,73.9040
2019-04-29T09:18:51.325Z,74.4137
2019-04-29T09:19:54.339Z,74.5647
2019-04-29T09:20:57.301Z,74.5830
2019-04-29T09:22:00.318Z,74.4411
2019-04-29T09:23:03.392Z,74.4366
2019-04-29T09:24:06.319Z,74.2657
2019-04-29T09:25:09.326Z,75.8068
2019-04-29T09:26:12.330Z,75.5322
2019-04-29T09:27:15.315Z,73.4249
2019-04-29T09:28:27.024Z,74.9340
2019-04-29T09:29:26.337Z,74.2107
2019-04-29T09:30:29.286Z,73.6080
2019-04-29T09:31:32.325Z,74.4549
2019-04-29T09:32:38.236Z,74.3938
2019-04-29T09:33:44.274Z,75.0912
2019-04-29T09:34:51.349Z,75.4726
2019-04-29T09:35:54.275Z,74.4045
2019-04-29T09:36:57.339Z,74.5815
2019-04-29T09:38:00.284Z,74.7921
2019-04-29T09:39:03.333Z,75.2392
2019-04-29T09:40:06.298Z,76.3226
2019-04-29T09:41:09.311Z,76.8765
2019-04-29T09:42:13.195Z,77.2381
2019-04-29T09:43:21.368Z,77.2396
2019-04-29T09:44:26.385Z,76.9329
2019-04-29T09:45:29.291Z,75.9533
2019-04-29T09:46:34.465Z,74.9157
2019-04-29T09:47:38.290Z,74.7524
2019-04-29T09:48:40.323Z,76.0906
2019-04-29T09:49:43.315Z,76.0494
2019-04-29T09:50:46.322Z,73.7133
2019-04-29T09:51:49.363Z,72.7108
2019-04-29T09:52:52.336Z,72.9854
2019-04-29T09:53:55.335Z,71.8227
2019-04-29T09:54:59.523Z,73.0022
2019-04-29T09:56:06.299Z,71.3375
2019-04-29T09:57:09.302Z,71.7128
2019-04-29T09:58:12.314Z,72.8420
2019-04-29T09:59:15.310Z,71.5938
2019-04-29T10:00:18.304Z,68.9937
2019-04-29T10:01:21.304Z,71.4870
2019-04-29T10:02:26.357Z,71.3405
2019-04-29T10:03:32.298Z,72.9885
2019-04-29T10:04:35.310Z,72.9381
2019-04-29T10:05:38.314Z,73.4020
2019-04-29T10:06:41.337Z,73.0770
2019-04-29T10:07:46.373Z,73.2402
2019-04-29T10:08:50.369Z,72.5032
2019-04-29T10:09:57.305Z,72.3705
2019-04-29T10:11:00.319Z,71.9463
2019-04-29T10:12:03.312Z,71.9905
2019-04-29T10:13:06.299Z,71.8090
2019-04-29T10:14:09.341Z,71.4565
2019-04-29T10:15:12.296Z,70.5898
2019-04-29T10:16:15.349Z,71.9631
2019-04-29T10:17:18.335Z,71.8761
2019-04-29T10:18:25.159Z,69.1981
2019-04-29T10:19:29.352Z,71.0857
2019-04-29T10:20:32.300Z,69.8222
2019-04-29T10:21:35.365Z,71.0903
2019-04-29T10:22:38.295Z,71.1162
2019-04-29T10:23:41.318Z,70.8934
2019-04-29T10:24:44.297Z,72.1340
2019-04-29T10:25:47.302Z,72.5307
2019-04-29T10:26:50.396Z,71.8669
2019-04-29T10:27:53.298Z,70.9987
2019-04-29T10:28:56.339Z,70.5486
2019-04-29T10:29:59.322Z,69.6117
2019-04-29T10:31:02.357Z,68.5359
2019-04-29T10:32:06.847Z,70.4204
2019-04-29T10:33:12.862Z,70.0908
2019-04-29T10:34:19.309Z,68.4901
2019-04-29T10:35:22.311Z,68.8243
2019-04-29T10:36:26.262Z,70.7591
2019-04-29T10:37:31.460Z,69.4774
2019-04-29T10:38:40.228Z,68.7739
2019-04-29T10:39:43.306Z,68.6458
2019-04-29T10:40:46.390Z,69.8085
2019-04-29T10:41:49.323Z,69.5476
2019-04-29T10:42:52.368Z,69.5109
2019-04-29T10:43:55.599Z,69.1890
2019-04-29T10:44:59.334Z,68.8823
2019-04-29T10:46:02.307Z,69.2454
2019-04-29T10:47:05.326Z,68.7129
2019-04-29T10:48:08.338Z,68.6366
2019-04-29T10:49:11.349Z,68.0507
2019-04-29T10:50:15.552Z,68.1834
2019-04-29T10:51:23.305Z,70.9483
2019-04-29T10:52:28.324Z,72.6375
2019-04-29T10:53:31.340Z,67.6295
2019-04-29T10:54:34.285Z,67.6005
2019-04-29T10:55:37.295Z,67.6509
2019-04-29T10:56:41.074Z,68.5451
2019-04-29T10:57:44.864Z,67.2435
2019-04-29T10:58:52.382Z,68.6809
2019-04-29T10:59:55.298Z,67.8035
2019-04-29T11:00:58.472Z,66.1860
2019-04-29T11:02:05.092Z,68.1559
2019-04-29T11:03:09.305Z,68.8289
2019-04-29T11:04:12.391Z,68.6671
2019-04-29T11:05:15.331Z,66.8910
2019-04-29T11:06:18.314Z,66.7277
2019-04-29T11:07:26.509Z,67.7028
2019-04-29T11:08:29.372Z,68.7495
2019-04-29T11:09:32.301Z,67.4464
2019-04-29T11:10:35.341Z,70.0832
2019-04-29T11:11:38.276Z,70.3899
2019-04-29T11:12:41.320Z,67.0970
2019-04-29T11:13:48.393Z,68.6641
2019-04-29T11:14:52.305Z,69.2088
2019-04-29T11:15:55.326Z,69.4606
2019-04-29T11:16:58.311Z,69.1768
2019-04-29T11:18:03.516Z,70.4021
2019-04-29T11:19:07.333Z,69.2210
2019-04-29T11:20:11.132Z,68.9113
2019-04-29T11:21:18.284Z,69.1249
2019-04-29T11:22:21.344Z,67.0207
2019-04-29T11:23:24.303Z,66.0258
2019-04-29T11:24:27.355Z,66.5812
2019-04-29T11:25:30.327Z,67.3915
2019-04-29T11:26:33.256Z,65.8900
2019-04-29T11:27:36.346Z,64.1047
2019-04-29T11:28:39.298Z,63.5035
2019-04-29T11:29:44.427Z,63.6683
2019-04-29T11:30:49.554Z,65.1423
2019-04-29T11:31:54.149Z,66.8605
2019-04-29T11:33:00.115Z,65.6794
2019-04-29T11:34:05.501Z,65.6702
2019-04-29T11:35:08.363Z,64.4282
2019-04-29T11:36:11.321Z,66.7491
2019-04-29T11:37:17.923Z,62.9099
2019-04-29T11:38:22.316Z,64.3366
2019-04-29T11:39:25.334Z,66.1540
2019-04-29T11:40:42.756Z,63.8193
2019-04-29T11:41:36.320Z,63.3036
2019-04-29T11:42:41.680Z,64.7486
2019-04-29T11:43:46.600Z,64.6128
2019-04-29T11:44:57.149Z,65.4582
2019-04-29T11:46:01.343Z,64.2954
2019-04-29T11:47:04.314Z,64.9332
2019-04-29T11:48:07.308Z,65.8198
2019-04-29T11:49:10.315Z,64.9836
2019-04-29T11:50:14.346Z,65.8122
2019-04-29T11:51:17.353Z,65.9388
2019-04-29T11:52:23.787Z,69.0898
2019-04-29T11:53:28.332Z,65.9815
2019-04-29T11:54:31.319Z,65.2995
2019-04-29T11:55:34.309Z,65.7389
2019-04-29T11:56:39.585Z,65.5222
2019-04-29T11:57:43.349Z,65.1850
2019-04-29T11:58:46.300Z,65.5787
2019-04-29T11:59:49.305Z,66.5202
2019-04-29T12:00:52.331Z,65.0889
2019-04-29T12:01:55.293Z,64.8188
2019-04-29T12:02:58.353Z,65.9953
2019-04-29T12:04:01.383Z,65.4139
2019-04-29T12:05:08.192Z,65.1972
2019-04-29T12:06:16.351Z,65.7984
2019-04-29T12:07:21.202Z,66.8406
2019-04-29T12:08:24.335Z,65.8671
2019-04-29T12:09:30.866Z,64.0986
2019-04-29T12:10:39.258Z,65.7420
2019-04-29T12:11:43.359Z,66.8223
2019-04-29T12:12:47.717Z,65.8534
2019-04-29T12:13:52.313Z,65.5283
2019-04-29T12:14:55.301Z,65.6382
2019-04-29T12:15:59.338Z,65.5634
2019-04-29T12:17:02.393Z,65.9678
2019-04-29T12:18:05.283Z,66.1143
2019-04-29T12:19:08.314Z,66.0121
2019-04-29T12:20:10.352Z,65.7465
2019-04-29T12:21:13.310Z,65.3178
2019-04-29T12:22:28.190Z,66.0807
2019-04-29T12:23:24.331Z,64.8005
2019-04-29T12:24:26.330Z,64.6204
2019-04-29T12:25:29.413Z,65.7298
2019-04-29T12:26:35.012Z,66.3569
2019-04-29T12:27:40.336Z,67.1122
2019-04-29T12:28:44.525Z,64.9363
2019-04-29T12:29:48.737Z,64.8234
2019-04-29T12:30:55.345Z,65.4856
2019-04-29T12:31:58.326Z,65.2857
2019-04-29T12:33:03.115Z,66.8284
2019-04-29T12:34:06.278Z,66.7277
2019-04-29T12:35:09.346Z,67.2633
2019-04-29T12:36:12.291Z,65.2720
2019-04-29T12:37:15.284Z,66.4012
2019-04-29T12:38:18.369Z,65.5512
2019-04-29T12:39:42.264Z,66.0212
2019-04-29T12:40:29.282Z,65.4505
2019-04-29T12:41:32.418Z,67.1351
2019-04-29T12:42:35.719Z,65.5192
2019-04-29T12:43:43.354Z,64.5472
2019-04-29T12:44:46.382Z,64.8508
2019-04-29T12:45:49.334Z,65.9937
2019-04-29T12:46:52.322Z,65.9342
2019-04-29T12:47:55.335Z,66.9978
2019-04-29T12:48:58.339Z,65.3269